createdAt,value
2024-04-18T00:00:17.078Z,0.13
2024-04-18T00:02:43.915Z,0.40
2024-04-18T00:05:14.454Z,0.40
2024-04-18T00:07:41.426Z,0.30
2024-04-18T00:10:11.206Z,0.40
2024-04-18T00:12:38.083Z,0.22
2024-04-18T00:15:09.167Z,0.40
2024-04-18T00:17:38.752Z,0.20
2024-04-18T00:20:09.160Z,0.45
2024-04-18T00:22:36.053Z,0.30
2024-04-18T00:25:07.282Z,0.30
2024-04-18T00:27:34.100Z,0.38
2024-04-18T00:30:03.622Z,0.38
2024-04-18T00:32:30.510Z,0.50
2024-04-18T00:35:02.775Z,0.43
2024-04-18T00:39:58.766Z,0.28
2024-04-18T00:42:25.689Z,0.70
2024-04-18T00:44:55.346Z,0.47
2024-04-18T00:47:22.161Z,0.65
2024-04-18T00:49:51.575Z,0.20
2024-04-18T00:52:22.838Z,0.28
2024-04-18T00:54:53.027Z,0.40
2024-04-18T00:57:20.276Z,0.40
2024-04-18T00:59:51.029Z,0.52
2024-04-18T01:02:18.341Z,0.57
2024-04-18T01:04:48.061Z,0.45
2024-04-18T01:07:15.072Z,0.40
2024-04-18T01:09:47.325Z,0.30
2024-04-18T01:12:14.296Z,0.20
2024-04-18T01:14:44.961Z,0.28
2024-04-18T01:17:12.257Z,0.55
2024-04-18T01:19:42.298Z,0.40
2024-04-18T01:22:09.416Z,0.68
2024-04-18T01:24:38.912Z,0.60
2024-04-18T01:27:08.520Z,0.57
2024-04-18T01:29:37.991Z,0.52
2024-04-18T01:32:05.268Z,0.47
2024-04-18T01:34:34.712Z,0.70
2024-04-18T01:37:01.554Z,0.40
2024-04-18T01:39:31.191Z,0.45
2024-04-18T01:41:58.055Z,0.85
2024-04-18T01:44:30.137Z,0.80
2024-04-18T01:49:26.184Z,0.43
2024-04-18T01:51:53.033Z,0.70
2024-04-18T01:54:22.471Z,0.50
2024-04-18T01:56:49.268Z,0.70
2024-04-18T01:59:18.676Z,0.60
2024-04-18T02:01:48.042Z,0.70
2024-04-18T02:04:19.078Z,0.60
2024-04-18T02:06:47.239Z,0.60
2024-04-18T02:09:17.558Z,0.52
2024-04-18T02:11:44.501Z,0.50
2024-04-18T02:14:14.202Z,0.55
2024-04-18T02:16:40.987Z,0.77
2024-04-18T02:19:12.918Z,1.10
2024-04-18T02:21:39.848Z,0.63
2024-04-18T02:24:09.419Z,0.90
2024-04-18T02:26:36.803Z,0.47
2024-04-18T02:29:06.156Z,0.70
2024-04-18T02:31:33.263Z,0.52
2024-04-18T02:34:02.643Z,0.85
2024-04-18T02:36:32.103Z,0.57
2024-04-18T02:39:01.569Z,0.68
2024-04-18T02:41:29.452Z,0.70
2024-04-18T02:43:58.885Z,0.57
2024-04-18T02:46:25.780Z,0.65
2024-04-18T02:48:55.162Z,0.70
2024-04-18T02:51:24.618Z,0.55
2024-04-18T02:53:54.053Z,0.90
2024-04-18T02:56:23.445Z,0.80
2024-04-18T02:58:51.329Z,0.50
2024-04-18T03:01:20.793Z,0.40
2024-04-18T03:03:47.746Z,0.70
2024-04-18T03:06:17.215Z,0.93
2024-04-18T03:08:44.573Z,0.55
2024-04-18T03:11:16.637Z,0.45
2024-04-18T03:16:12.665Z,0.93
2024-04-18T03:18:39.452Z,1.92
2024-04-18T03:21:09.138Z,2.65
2024-04-18T03:23:35.980Z,2.42
2024-04-18T03:26:05.567Z,3.45
2024-04-18T03:28:34.948Z,2.53
2024-04-18T03:31:06.858Z,1.50
2024-04-18T03:36:05.912Z,1.90
2024-04-18T03:38:35.469Z,1.85
2024-04-18T03:41:04.867Z,2.63
2024-04-18T03:43:42.023Z,4.85
2024-04-18T03:46:11.449Z,4.95
2024-04-18T03:48:40.860Z,0.45
2024-04-18T03:51:07.712Z,0.63
2024-04-18T03:53:37.168Z,0.60
2024-04-18T03:56:04.170Z,0.73
2024-04-18T03:58:33.549Z,0.63
2024-04-18T04:01:05.667Z,0.77
2024-04-18T04:03:32.741Z,0.60
2024-04-18T04:06:02.238Z,0.77
2024-04-18T04:08:29.046Z,0.82
2024-04-18T04:10:58.403Z,0.60
2024-04-18T04:13:25.182Z,0.63
2024-04-18T04:15:54.639Z,0.98
2024-04-18T04:18:27.322Z,0.80
2024-04-18T04:20:56.840Z,0.50
2024-04-18T04:23:24.180Z,0.50
2024-04-18T04:25:54.027Z,0.82
2024-04-18T04:28:20.816Z,0.32
2024-04-18T04:30:50.291Z,0.50
2024-04-18T04:33:17.181Z,0.40
2024-04-18T04:35:49.303Z,0.50
2024-04-18T04:40:45.402Z,0.30
2024-04-18T04:43:12.206Z,0.30
2024-04-18T04:45:41.650Z,0.30
2024-04-18T04:48:08.745Z,0.40
2024-04-18T04:50:41.944Z,0.20
2024-04-18T04:53:11.364Z,0.20
2024-04-18T04:55:40.760Z,0.20
2024-04-18T04:58:07.933Z,0.30
2024-04-18T05:00:37.361Z,0.32
2024-04-18T05:03:04.843Z,0.32
2024-04-18T05:05:34.674Z,0.13
2024-04-18T05:08:01.508Z,0.20
2024-04-18T05:10:33.420Z,0.10
2024-04-18T05:13:02.168Z,0.20
2024-04-18T05:15:31.662Z,0.40
2024-04-18T05:17:58.518Z,0.10
2024-04-18T05:20:27.996Z,0.20
2024-04-18T05:22:54.772Z,0.28
2024-04-18T05:25:24.235Z,0.15
2024-04-18T05:28:04.264Z,0.30
2024-04-18T05:30:49.432Z,0.22
2024-04-18T05:33:19.424Z,0.10
2024-04-18T05:35:48.833Z,0.30
2024-04-18T05:38:18.217Z,0.00
2024-04-18T05:40:47.943Z,0.10
2024-04-18T05:43:20.175Z,0.03
2024-04-18T05:48:19.192Z,0.00
2024-04-18T05:50:48.589Z,0.20
2024-04-18T05:53:15.498Z,0.00
2024-04-18T05:55:44.886Z,0.17
2024-04-18T05:58:14.289Z,0.03
2024-04-18T06:00:46.774Z,0.03
2024-04-18T06:03:16.628Z,0.15
2024-04-18T06:05:46.070Z,0.10
2024-04-18T06:08:12.872Z,0.10
2024-04-18T06:10:42.277Z,0.17
2024-04-18T06:13:11.728Z,0.10
2024-04-18T06:15:46.727Z,0.10
2024-04-18T06:18:16.522Z,0.30
2024-04-18T06:20:47.301Z,0.10
2024-04-18T06:23:17.506Z,0.00
2024-04-18T06:25:46.984Z,0.00
2024-04-18T06:28:16.691Z,0.10
2024-04-18T06:30:48.759Z,0.00
2024-04-18T06:33:18.289Z,0.28
2024-04-18T06:35:47.790Z,0.00
2024-04-18T06:38:17.178Z,0.08
2024-04-18T06:40:46.747Z,0.03
2024-04-18T06:43:16.277Z,0.03
2024-04-18T06:45:50.213Z,0.20
2024-04-18T06:48:19.798Z,0.03
2024-04-18T06:50:49.198Z,0.10
2024-04-18T06:53:18.556Z,0.03
2024-04-18T07:08:15.394Z,0.20
2024-04-18T07:10:44.912Z,0.20
2024-04-18T07:13:14.337Z,0.40
2024-04-18T07:15:43.783Z,0.50
2024-04-18T07:18:13.289Z,0.20
2024-04-18T07:20:43.059Z,0.38
2024-04-18T07:23:15.074Z,0.35
2024-04-18T07:29:50.888Z,0.43
2024-04-18T07:32:20.255Z,0.38
2024-04-18T07:34:49.661Z,0.38
2024-04-18T07:37:19.045Z,0.20
2024-04-18T07:39:51.081Z,0.28
2024-04-18T07:42:20.543Z,0.22
2024-04-18T07:44:49.967Z,0.30
2024-04-18T07:47:20.542Z,0.40
2024-04-18T07:49:49.955Z,0.20
2024-04-18T07:52:19.347Z,0.30
2024-04-18T07:54:51.415Z,0.30
2024-04-18T07:59:52.488Z,0.40
2024-04-18T08:02:23.953Z,0.08
2024-04-18T08:04:59.700Z,0.10
2024-04-18T08:07:33.418Z,0.10
2024-04-18T08:10:11.272Z,0.28
2024-04-18T08:12:46.069Z,0.03
2024-04-18T08:15:23.468Z,0.20
2024-04-18T08:17:55.987Z,0.00
2024-04-18T08:20:25.364Z,0.20
2024-04-18T08:22:55.428Z,0.28
2024-04-18T08:25:27.662Z,0.40
2024-04-18T08:27:57.029Z,0.25
2024-04-18T08:30:27.858Z,0.43
2024-04-18T08:32:57.237Z,0.57
2024-04-18T08:35:26.715Z,0.47
2024-04-18T08:37:56.257Z,0.38
2024-04-18T08:40:29.910Z,0.57
2024-04-18T08:42:59.368Z,0.52
2024-04-18T08:45:35.172Z,0.35
2024-04-18T08:48:05.942Z,0.57
2024-04-18T08:50:36.048Z,0.38
2024-04-18T08:53:08.176Z,0.35
2024-04-18T08:58:14.178Z,0.50
2024-04-18T09:00:45.081Z,0.50
2024-04-18T09:03:14.606Z,0.55
2024-04-18T09:05:44.796Z,0.47
2024-04-18T09:08:14.465Z,0.80
2024-04-18T09:10:46.681Z,0.93
2024-04-18T09:13:16.057Z,0.43
2024-04-18T09:15:45.831Z,0.80
2024-04-18T09:18:15.309Z,0.82
2024-04-18T09:20:44.933Z,0.40
2024-04-18T09:23:14.364Z,0.60
2024-04-18T09:25:46.624Z,0.30
2024-04-18T09:28:21.665Z,0.60
2024-04-18T09:30:57.435Z,0.80
2024-04-18T09:33:27.906Z,0.50
2024-04-18T09:36:00.613Z,0.50
2024-04-18T09:38:33.922Z,0.70
2024-04-18T09:41:14.765Z,0.60
2024-04-18T09:43:48.812Z,0.30
2024-04-18T09:46:19.611Z,0.55
2024-04-18T09:48:50.197Z,0.50
2024-04-18T09:51:20.623Z,0.43
2024-04-18T09:53:50.837Z,0.68
2024-04-18T09:56:25.089Z,0.50
2024-04-18T09:58:55.249Z,0.70
2024-04-18T10:01:25.466Z,0.80
2024-04-18T10:03:55.059Z,0.70
2024-04-18T10:06:30.889Z,0.50
2024-04-18T10:09:01.995Z,0.75
2024-04-18T10:11:34.410Z,0.70
2024-04-18T10:14:04.125Z,0.45
2024-04-18T10:16:35.816Z,1.05
2024-04-18T10:19:12.807Z,0.98
2024-04-18T10:21:49.897Z,0.50
2024-04-18T10:24:36.394Z,0.60
2024-04-18T10:27:10.671Z,0.47
2024-04-18T10:29:40.474Z,0.65
2024-04-18T10:32:11.607Z,0.90
2024-04-18T10:34:41.138Z,0.63
2024-04-18T10:37:10.810Z,0.75
2024-04-18T10:39:41.703Z,1.42
2024-04-18T10:42:14.156Z,0.95
2024-04-18T10:44:44.080Z,0.63
2024-04-18T10:47:14.423Z,0.63
2024-04-18T10:49:41.340Z,1.23
2024-04-18T10:52:12.244Z,0.50
2024-04-18T10:54:41.687Z,0.38
2024-04-18T10:57:13.989Z,0.90
2024-04-18T10:59:44.819Z,0.68
2024-04-18T11:02:15.362Z,0.30
2024-04-18T11:04:44.956Z,0.52
2024-04-18T11:07:14.709Z,0.60
2024-04-18T11:09:45.435Z,0.70
2024-04-18T11:12:18.787Z,0.82
2024-04-18T11:14:49.427Z,0.43
2024-04-18T11:17:18.857Z,0.65
2024-04-18T11:19:48.370Z,0.95
2024-04-18T11:22:17.703Z,0.73
2024-04-18T11:24:47.128Z,0.57
2024-04-18T11:27:19.157Z,0.60
2024-04-18T11:29:54.036Z,1.00
2024-04-18T11:32:23.850Z,1.10
2024-04-18T11:35:00.221Z,0.98
2024-04-18T11:37:40.064Z,0.90
2024-04-18T11:40:10.578Z,0.70
2024-04-18T11:42:42.583Z,0.88
2024-04-18T11:50:11.474Z,0.30
2024-04-18T11:52:40.867Z,0.55
2024-04-18T11:55:10.277Z,0.68
2024-04-18T11:57:42.583Z,0.55
2024-04-18T12:00:12.745Z,0.80
2024-04-18T12:02:42.281Z,0.70
2024-04-18T12:05:12.140Z,0.73
2024-04-18T12:07:41.647Z,0.30
2024-04-18T12:10:11.117Z,0.40
2024-04-18T12:12:43.230Z,0.73
2024-04-18T12:17:42.609Z,0.70
2024-04-18T12:20:12.734Z,0.52
2024-04-18T12:22:42.376Z,0.65
2024-04-18T12:25:11.770Z,1.02
2024-04-18T12:27:43.925Z,0.85
2024-04-18T12:30:13.965Z,1.00
2024-04-18T12:32:43.573Z,1.00
2024-04-18T12:35:13.016Z,0.65
2024-04-18T12:37:42.442Z,0.90
2024-04-18T12:40:13.366Z,1.17
2024-04-18T12:42:45.594Z,1.05
2024-04-18T12:45:15.172Z,1.13
2024-04-18T12:47:42.239Z,0.85
2024-04-18T12:50:11.930Z,1.02
2024-04-18T12:52:43.447Z,0.80
2024-04-18T12:55:13.319Z,0.90
2024-04-18T12:57:45.375Z,1.15
2024-04-18T13:00:15.511Z,0.70
2024-04-18T13:02:44.972Z,0.43
2024-04-18T13:05:14.588Z,0.57
2024-04-18T13:07:44.124Z,0.52
2024-04-18T13:10:13.681Z,0.10
2024-04-18T13:12:45.704Z,0.22
2024-04-18T13:15:13.519Z,1.02
2024-04-18T13:17:43.645Z,0.98
2024-04-18T13:20:13.336Z,0.85
2024-04-18T13:22:42.717Z,0.65
2024-04-18T13:25:12.066Z,0.80
2024-04-18T13:27:41.895Z,0.98
2024-04-18T13:30:14.725Z,0.90
2024-04-18T13:32:44.332Z,0.90
2024-04-18T13:35:14.179Z,0.80
2024-04-18T13:37:43.633Z,1.20
2024-04-18T13:40:13.683Z,1.20
2024-04-18T13:42:43.118Z,0.70
2024-04-18T13:45:15.251Z,0.75
2024-04-18T13:50:14.143Z,0.80
2024-04-18T13:52:43.531Z,0.82
2024-04-18T13:55:12.950Z,0.68
2024-04-18T13:57:43.488Z,0.60
2024-04-18T14:00:16.166Z,0.63
2024-04-18T14:02:43.262Z,0.50
2024-04-18T14:05:15.674Z,0.40
2024-04-18T14:07:45.086Z,0.60
2024-04-18T14:10:14.582Z,0.50
2024-04-18T14:12:43.995Z,0.45
2024-04-18T14:15:29.246Z,0.52
2024-04-18T14:18:14.790Z,0.60
2024-04-18T14:20:48.934Z,0.20
2024-04-18T14:23:18.613Z,0.30
2024-04-18T14:25:48.224Z,0.20
2024-04-18T14:28:24.221Z,0.30
2024-04-18T14:31:03.789Z,0.70
2024-04-18T14:33:33.273Z,0.30
2024-04-18T14:36:02.790Z,0.30
2024-04-18T14:38:32.367Z,0.20
2024-04-18T14:41:09.637Z,0.32
2024-04-18T14:43:41.572Z,0.25
2024-04-18T14:46:13.930Z,0.08
2024-04-18T14:48:43.386Z,0.05
2024-04-18T14:51:12.766Z,0.17
2024-04-18T14:53:42.276Z,0.22
2024-04-18T14:56:11.785Z,0.32
2024-04-18T14:58:42.115Z,0.38
2024-04-18T15:01:14.527Z,0.40
2024-04-18T15:03:43.946Z,0.20
2024-04-18T15:06:13.690Z,0.32
2024-04-18T15:08:44.754Z,0.52
2024-04-18T15:11:14.229Z,0.63
2024-04-18T15:13:44.040Z,0.25
2024-04-18T15:16:16.131Z,0.47
2024-04-18T15:18:45.540Z,0.68
2024-04-18T15:21:15.034Z,0.35
2024-04-18T15:23:44.414Z,1.05
2024-04-18T15:26:15.389Z,0.73
2024-04-18T15:28:44.847Z,0.68
2024-04-18T15:31:16.873Z,0.80
2024-04-18T15:33:46.397Z,1.23
2024-04-18T15:36:15.947Z,0.70
2024-04-18T15:38:45.322Z,0.73
2024-04-18T15:41:14.759Z,0.95
2024-04-18T15:43:44.332Z,1.02
2024-04-18T15:46:13.800Z,0.75
2024-04-18T15:48:46.175Z,0.55
2024-04-18T15:51:15.784Z,0.90
2024-04-18T15:53:45.209Z,0.82
2024-04-18T15:56:16.986Z,2.15
2024-04-18T15:58:46.567Z,1.00
2024-04-18T16:01:16.038Z,1.15
2024-04-18T16:03:48.117Z,1.05
2024-04-18T16:06:17.555Z,1.02
2024-04-18T16:08:46.988Z,1.02
2024-04-18T16:11:16.468Z,0.82
2024-04-18T16:13:45.899Z,0.70
2024-04-18T16:16:15.319Z,0.80
2024-04-18T16:18:44.816Z,0.60
2024-04-18T16:21:16.847Z,0.80
2024-04-18T16:23:46.289Z,0.70
2024-04-18T16:26:15.739Z,0.63
2024-04-18T16:28:46.134Z,0.73
2024-04-18T16:31:15.544Z,0.75
2024-04-18T16:33:44.994Z,0.90
2024-04-18T16:36:27.678Z,0.70
2024-04-18T16:39:10.421Z,0.65
2024-04-18T16:41:40.828Z,0.80
2024-04-18T16:44:10.264Z,0.77
2024-04-18T16:46:39.996Z,0.98
2024-04-18T16:49:09.437Z,1.30
2024-04-18T16:51:41.431Z,0.77
2024-04-18T16:56:40.086Z,0.50
2024-04-18T16:59:06.891Z,0.63
2024-04-18T17:01:36.351Z,1.10
2024-04-18T17:04:06.128Z,1.13
2024-04-18T17:06:45.298Z,1.25
2024-04-18T17:09:20.356Z,0.93
2024-04-18T17:11:49.847Z,1.05
2024-04-18T17:14:19.567Z,0.90
2024-04-18T17:16:48.947Z,0.90
2024-04-18T17:19:18.608Z,1.80
2024-04-18T17:21:48.279Z,1.63
2024-04-18T17:24:20.399Z,0.80
2024-04-18T17:26:49.852Z,4.68
2024-04-18T17:29:19.284Z,1.10
2024-04-18T17:31:48.829Z,1.10
2024-04-18T17:34:18.239Z,1.10
2024-04-18T17:36:48.196Z,0.80
2024-04-18T17:39:20.294Z,1.10
2024-04-18T17:41:49.796Z,1.48
2024-04-18T17:44:19.688Z,1.00
2024-04-18T17:46:49.168Z,1.35
2024-04-18T17:49:18.609Z,1.23
2024-04-18T17:51:48.109Z,1.67
2024-04-18T17:54:20.593Z,1.92
2024-04-18T17:56:50.469Z,1.10
2024-04-18T17:59:20.657Z,0.82
2024-04-18T18:01:51.520Z,1.50
2024-04-18T18:04:21.220Z,1.23
2024-04-18T18:06:50.672Z,1.08
2024-04-18T18:09:22.810Z,1.02
2024-04-18T18:11:52.420Z,1.30
2024-04-18T18:14:21.889Z,1.50
2024-04-18T18:16:51.349Z,1.80
2024-04-18T18:19:21.063Z,1.70
2024-04-18T18:21:50.634Z,2.67
2024-04-18T18:24:20.191Z,3.95
2024-04-18T18:26:49.643Z,1.30
2024-04-18T18:29:18.311Z,1.30
2024-04-18T18:31:47.874Z,1.27
2024-04-18T18:34:17.324Z,3.38
2024-04-18T18:36:44.492Z,3.60
2024-04-18T18:39:14.003Z,1.42
2024-04-18T18:41:43.468Z,1.38
2024-04-18T18:44:16.705Z,0.85
2024-04-18T18:46:43.491Z,0.80
2024-04-18T18:49:13.401Z,1.40
2024-04-18T18:51:44.733Z,1.10
2024-04-18T18:54:11.834Z,1.35
2024-04-18T18:56:41.416Z,1.38
2024-04-18T18:59:11.717Z,1.77
2024-04-18T19:01:41.180Z,0.82
2024-04-18T19:04:08.103Z,1.48
2024-04-18T19:06:37.691Z,1.10
2024-04-18T19:09:07.231Z,1.52
2024-04-18T19:11:36.674Z,1.92
2024-04-18T19:14:03.509Z,1.30
2024-04-18T19:16:36.732Z,0.85
2024-04-18T19:19:04.423Z,0.57
2024-04-18T19:21:33.907Z,0.60
2024-04-18T19:24:00.669Z,0.77
2024-04-18T19:26:30.348Z,0.70
2024-04-18T19:28:57.146Z,0.60
2024-04-18T19:31:26.615Z,2.45
2024-04-18T19:33:56.171Z,1.38
2024-04-18T19:36:25.640Z,0.38
2024-04-18T19:38:53.130Z,2.22
2024-04-18T19:41:22.847Z,1.25
2024-04-18T19:43:52.947Z,0.70
2024-04-18T19:46:23.202Z,0.55
2024-04-18T19:48:50.229Z,0.28
2024-04-18T19:51:22.323Z,0.40
2024-04-18T19:53:49.176Z,0.63
2024-04-18T19:56:18.572Z,0.77
2024-04-18T19:58:45.480Z,0.80
2024-04-18T20:01:14.965Z,1.10
2024-04-18T20:03:41.965Z,0.47
2024-04-18T20:06:11.467Z,0.50
2024-04-18T20:08:43.084Z,0.40
2024-04-18T20:11:13.361Z,0.47
2024-04-18T20:13:40.197Z,0.43
2024-04-18T20:16:11.533Z,0.30
2024-04-18T20:18:38.497Z,0.40
2024-04-18T20:21:08.138Z,0.43
2024-04-18T20:23:35.018Z,0.40
2024-04-18T20:26:07.508Z,0.50
2024-04-18T20:28:34.296Z,1.00
2024-04-18T20:31:03.610Z,0.40
2024-04-18T20:33:30.512Z,0.43
2024-04-18T20:35:59.904Z,0.50
2024-04-18T20:38:26.726Z,0.43
2024-04-18T20:40:56.061Z,0.38
2024-04-18T20:43:25.492Z,0.75
2024-04-18T20:45:57.575Z,0.38
2024-04-18T20:50:53.718Z,0.30
2024-04-18T20:53:20.477Z,0.57
2024-04-18T20:55:49.845Z,0.43
2024-04-18T20:58:16.650Z,0.77
2024-04-18T21:00:49.847Z,0.60
2024-04-18T21:03:16.676Z,0.45
2024-04-18T21:05:47.716Z,0.55
2024-04-18T21:08:14.797Z,0.80
2024-04-18T21:10:44.974Z,0.30
2024-04-18T21:13:13.901Z,0.65
2024-04-18T21:15:44.082Z,0.60
2024-04-18T21:18:13.702Z,0.90
2024-04-18T21:20:43.108Z,0.68
2024-04-18T21:23:09.876Z,0.70
2024-04-18T21:25:39.507Z,0.32
2024-04-18T21:28:06.344Z,0.80
2024-04-18T21:30:36.898Z,0.60
2024-04-18T21:33:04.301Z,0.60
2024-04-18T21:35:36.384Z,0.60
2024-04-18T21:38:04.970Z,0.50
2024-04-18T21:40:34.443Z,0.77
2024-04-18T21:43:03.989Z,0.70
2024-04-18T21:45:33.951Z,1.00
2024-04-18T21:48:01.130Z,1.08
2024-04-18T21:50:32.459Z,0.80
2024-04-18T21:53:02.882Z,0.75
2024-04-18T21:55:32.293Z,0.90
2024-04-18T21:58:01.645Z,0.70
2024-04-18T22:00:28.911Z,0.70
2024-04-18T22:02:58.421Z,0.70
2024-04-18T22:05:25.171Z,1.33
2024-04-18T22:08:00.412Z,0.90
2024-04-18T22:10:29.992Z,1.13
2024-04-18T22:12:59.544Z,1.02
2024-04-18T22:15:26.435Z,0.80
2024-04-18T22:17:55.931Z,0.95
2024-04-18T22:20:22.805Z,1.00
2024-04-18T22:22:52.594Z,1.15
2024-04-18T22:25:19.385Z,0.82
2024-04-18T22:27:51.457Z,1.52
2024-04-18T22:32:49.918Z,0.77
2024-04-18T22:35:16.915Z,0.90
2024-04-18T22:37:46.574Z,1.35
2024-04-18T22:40:16.149Z,1.08
2024-04-18T22:42:42.942Z,1.20
2024-04-18T22:45:15.009Z,1.05
2024-04-18T22:50:12.447Z,1.02
2024-04-18T22:52:39.377Z,1.33
2024-04-18T22:55:09.032Z,1.20
2024-04-18T22:57:38.695Z,1.40
2024-04-18T23:00:06.829Z,1.38
2024-04-18T23:02:38.976Z,0.75
2024-04-18T23:07:35.226Z,0.93
2024-04-18T23:10:02.139Z,1.10
2024-04-18T23:12:32.655Z,1.00
2024-04-18T23:14:59.436Z,1.42
2024-04-18T23:17:28.950Z,1.80
2024-04-18T23:19:58.586Z,1.20
2024-04-18T23:22:28.526Z,1.40
2024-04-18T23:24:55.301Z,1.38
2024-04-18T23:27:24.679Z,1.38
2024-04-18T23:29:51.438Z,1.20
2024-04-18T23:32:21.028Z,1.30
2024-04-18T23:34:50.733Z,1.17
2024-04-18T23:37:20.137Z,1.45
2024-04-18T23:39:49.691Z,1.63
2024-04-18T23:42:16.781Z,1.40
2024-04-18T23:44:46.261Z,1.60
2024-04-18T23:47:13.093Z,1.10
2024-04-18T23:49:42.574Z,1.27
2024-04-18T23:52:09.595Z,1.17
2024-04-18T23:54:46.575Z,1.67
2024-04-18T23:57:18.364Z,1.90
2024-04-18T23:59:47.919Z,2.17
